createdAt,value
2018-11-12T00:00:16.371Z,98989.61
2018-11-12T00:02:47.673Z,99000.74
2018-11-12T00:05:17.312Z,98988.17
2018-11-12T00:07:46.635Z,98991.31
2018-11-12T00:10:15.779Z,98988.37
2018-11-12T00:12:44.948Z,98983.14
2018-11-12T00:15:14.120Z,98993.71
2018-11-12T00:17:43.274Z,98999.52
2018-11-12T00:20:13.690Z,99010.64
2018-11-12T00:22:44.005Z,98999.11
2018-11-12T00:25:13.253Z,99014.08
2018-11-12T00:27:42.575Z,99021.25
2018-11-12T00:30:15.005Z,99018.34
2018-11-12T00:32:44.991Z,99014.34
2018-11-12T00:35:14.168Z,99009.31
2018-11-12T00:37:44.098Z,99019.97
2018-11-12T00:40:16.507Z,99015.67
2018-11-12T00:42:46.066Z,99028.02
2018-11-12T00:45:15.906Z,99020.59
2018-11-12T00:47:45.261Z,99019.67
2018-11-12T00:50:15.530Z,99023.41
2018-11-12T00:52:44.704Z,99030.64
2018-11-12T00:55:14.965Z,99030.64
2018-11-12T00:57:44.548Z,99031.73
2018-11-12T01:00:16.723Z,99033.61
2018-11-12T01:02:49.368Z,99036.60
2018-11-12T01:05:19.311Z,99025.27
2018-11-12T01:07:48.920Z,99031.73
2018-11-12T01:10:19.047Z,99029.27
2018-11-12T01:12:48.966Z,99026.41
2018-11-12T01:15:19.677Z,99022.59
2018-11-12T01:17:48.875Z,99021.94
2018-11-12T01:20:18.618Z,99024.91
2018-11-12T01:22:47.793Z,99025.01
2018-11-12T01:25:16.970Z,99017.94
2018-11-12T01:27:46.262Z,99020.66
2018-11-12T01:30:16.720Z,99018.80
2018-11-12T01:32:46.039Z,99019.47
2018-11-12T01:35:16.237Z,99015.94
2018-11-12T01:37:45.496Z,99014.91
2018-11-12T01:40:15.332Z,99015.52
2018-11-12T01:42:44.838Z,99016.39
2018-11-12T01:45:16.132Z,99012.34
2018-11-12T01:47:46.489Z,99016.03
2018-11-12T01:50:16.244Z,99013.78
2018-11-12T01:52:46.053Z,99016.97
2018-11-12T01:55:17.299Z,99020.70
2018-11-12T01:57:47.172Z,99025.02
2018-11-12T02:00:21.368Z,99016.50
2018-11-12T02:02:51.750Z,99017.56
2018-11-12T02:05:21.040Z,99020.34
2018-11-12T02:07:50.229Z,99015.52
2018-11-12T02:10:19.757Z,99010.30
2018-11-12T02:12:49.114Z,99018.96
2018-11-12T02:15:20.418Z,99010.09
2018-11-12T02:17:50.236Z,99012.30
2018-11-12T02:20:20.458Z,99009.80
2018-11-12T02:22:50.317Z,99005.80
2018-11-12T02:25:19.942Z,99010.72
2018-11-12T02:27:49.968Z,99004.77
2018-11-12T02:30:24.533Z,99009.58
2018-11-12T02:32:53.679Z,98999.08
2018-11-12T02:35:22.833Z,99002.56
2018-11-12T02:37:51.970Z,98996.36
2018-11-12T02:40:21.116Z,98999.38
2018-11-12T02:42:50.325Z,99000.72
2018-11-12T02:45:19.478Z,99012.14
2018-11-12T02:47:48.639Z,99000.83
2018-11-12T02:50:18.270Z,99007.27
2018-11-12T02:52:47.452Z,98999.90
2018-11-12T02:55:16.763Z,99003.63
2018-11-12T02:57:46.627Z,99001.89
2018-11-12T03:00:18.721Z,99008.13
2018-11-12T03:02:48.070Z,99012.95
2018-11-12T03:05:17.427Z,99008.49
2018-11-12T03:07:47.057Z,99012.81
2018-11-12T03:10:20.531Z,99010.86
2018-11-12T03:12:49.936Z,99016.75
2018-11-12T03:15:20.071Z,99018.14
2018-11-12T03:17:50.326Z,99018.55
2018-11-12T03:20:20.843Z,99017.22
2018-11-12T03:22:50.096Z,99012.24
2018-11-12T03:25:20.657Z,99011.77
2018-11-12T03:27:50.461Z,99006.28
2018-11-12T03:30:20.820Z,99008.23
2018-11-12T03:32:50.805Z,99013.05
2018-11-12T03:35:20.114Z,99006.34
2018-11-12T03:37:50.216Z,99019.19
2018-11-12T03:40:21.564Z,98987.33
2018-11-12T03:42:51.468Z,99024.47
2018-11-12T03:45:22.026Z,99029.39
2018-11-12T03:47:51.343Z,99032.47
2018-11-12T03:50:21.785Z,99030.02
2018-11-12T03:52:51.103Z,99025.97
2018-11-12T03:55:21.312Z,99032.45
2018-11-12T03:57:50.671Z,99029.73
2018-11-12T04:00:36.415Z,99028.52
2018-11-12T04:03:05.902Z,99026.94
2018-11-12T04:05:35.196Z,99022.27
2018-11-12T04:08:04.663Z,99023.66
2018-11-12T04:10:34.009Z,99022.84
2018-11-12T04:13:03.325Z,99023.00
2018-11-12T04:15:33.134Z,99029.39
2018-11-12T04:18:02.500Z,99024.99
2018-11-12T04:20:31.791Z,99032.98
2018-11-12T04:23:03.235Z,99037.44
2018-11-12T04:25:33.864Z,99027.14
2018-11-12T04:28:03.331Z,99027.70
2018-11-12T04:30:32.837Z,99029.73
2018-11-12T04:33:02.483Z,99025.61
2018-11-12T04:35:31.927Z,99028.52
2018-11-12T04:38:01.263Z,99033.88
2018-11-12T04:40:30.586Z,99033.61
2018-11-12T04:42:59.891Z,99043.39
2018-11-12T04:45:29.409Z,99038.94
2018-11-12T04:47:59.855Z,99044.53
2018-11-12T04:50:29.598Z,99045.30
2018-11-12T04:52:58.835Z,99040.72
2018-11-12T04:55:28.285Z,99035.94
2018-11-12T04:57:57.562Z,99030.77
2018-11-12T05:00:28.664Z,99030.31
2018-11-12T05:02:58.012Z,99024.55
2018-11-12T05:05:28.401Z,99031.52
2018-11-12T05:07:57.711Z,99028.41
2018-11-12T05:10:27.732Z,99036.12
2018-11-12T05:12:57.139Z,99033.25
2018-11-12T05:15:26.847Z,99033.77
2018-11-12T05:17:56.177Z,99031.56
2018-11-12T05:20:27.887Z,99038.79
2018-11-12T05:22:57.234Z,99041.22
2018-11-12T05:25:26.633Z,99043.30
2018-11-12T05:27:55.819Z,99042.85
2018-11-12T05:30:27.093Z,99047.94
2018-11-12T05:32:56.769Z,99050.84
2018-11-12T05:35:27.110Z,99046.66
2018-11-12T05:37:56.357Z,99058.03
2018-11-12T05:40:27.561Z,99052.56
2018-11-12T05:42:56.765Z,99050.45
2018-11-12T05:45:27.302Z,99048.45
2018-11-12T05:47:56.455Z,99043.00
2018-11-12T05:50:30.705Z,99048.75
2018-11-12T05:53:04.431Z,99045.33
2018-11-12T05:55:34.315Z,99047.84
2018-11-12T05:58:04.033Z,99044.52
2018-11-12T06:00:34.688Z,99051.53
2018-11-12T06:03:03.881Z,99047.63
2018-11-12T06:05:34.196Z,99047.91
2018-11-12T06:08:06.638Z,99046.13
2018-11-12T06:10:36.374Z,99047.23
2018-11-12T06:13:05.912Z,99055.41
2018-11-12T06:15:35.056Z,99063.21
2018-11-12T06:18:04.294Z,99062.39
2018-11-12T06:20:34.294Z,99061.48
2018-11-12T06:23:03.473Z,99064.72
2018-11-12T06:25:34.133Z,99075.68
2018-11-12T06:28:03.555Z,99085.58
2018-11-12T06:30:34.486Z,99089.94
2018-11-12T06:33:04.174Z,99081.13
2018-11-12T06:35:33.335Z,99091.14
2018-11-12T06:38:02.518Z,99095.95
2018-11-12T06:40:31.690Z,99098.44
2018-11-12T06:43:00.880Z,99106.42
2018-11-12T06:45:31.129Z,99109.21
2018-11-12T06:48:00.666Z,99109.13
2018-11-12T06:50:31.125Z,99106.22
2018-11-12T06:53:00.765Z,99102.52
2018-11-12T06:55:29.965Z,99100.89
2018-11-12T06:57:59.185Z,99102.52
2018-11-12T07:00:32.672Z,99093.02
2018-11-12T07:03:01.963Z,99098.25
2018-11-12T07:05:31.535Z,99090.81
2018-11-12T07:08:00.674Z,99095.95
2018-11-12T07:10:30.351Z,99107.13
2018-11-12T07:13:00.361Z,99116.17
2018-11-12T07:15:29.756Z,99117.11
2018-11-12T07:17:58.979Z,99115.63
2018-11-12T07:20:28.940Z,99099.76
2018-11-12T07:22:58.107Z,99104.39
2018-11-12T07:25:28.607Z,99104.48
2018-11-12T07:27:58.187Z,99107.06
2018-11-12T07:30:28.240Z,99106.66
2018-11-12T07:32:58.353Z,99111.17
2018-11-12T07:35:28.027Z,99111.75
2018-11-12T07:37:57.835Z,99110.64
2018-11-12T07:40:27.145Z,99114.51
2018-11-12T07:42:56.278Z,99123.95
2018-11-12T07:45:26.889Z,99125.98
2018-11-12T07:47:56.743Z,99129.58
2018-11-12T07:50:27.136Z,99127.31
2018-11-12T07:52:56.295Z,99124.77
2018-11-12T07:55:26.574Z,99122.70
2018-11-12T07:57:56.358Z,99126.82
2018-11-12T08:00:33.945Z,99122.58
2018-11-12T08:03:06.491Z,99131.23
2018-11-12T08:05:36.590Z,99135.79
2018-11-12T08:08:05.978Z,99141.36
2018-11-12T08:10:35.232Z,99143.27
2018-11-12T08:13:04.383Z,99145.30
2018-11-12T08:15:33.638Z,99138.51
2018-11-12T08:18:02.844Z,99138.51
2018-11-12T08:20:31.996Z,99146.13
2018-11-12T08:23:01.128Z,99146.75
2018-11-12T08:25:30.293Z,99141.23
2018-11-12T08:27:59.420Z,99131.97
2018-11-12T08:30:29.363Z,99129.94
2018-11-12T08:32:59.709Z,99120.16
2018-11-12T08:35:28.845Z,99121.55
2018-11-12T08:37:58.377Z,99113.33
2018-11-12T08:40:28.898Z,99111.70
2018-11-12T08:42:58.104Z,99117.67
2018-11-12T08:45:27.240Z,99120.92
2018-11-12T08:47:57.158Z,99115.86
2018-11-12T08:50:27.141Z,99128.03
2018-11-12T08:52:57.080Z,99130.77
2018-11-12T08:55:29.687Z,99135.79
2018-11-12T08:58:01.390Z,99128.95
2018-11-12T09:00:30.661Z,99128.58
2018-11-12T09:03:01.045Z,99128.64
2018-11-12T09:05:30.904Z,99138.09
2018-11-12T09:08:01.400Z,99133.97
2018-11-12T09:10:31.886Z,99137.75
2018-11-12T09:13:01.157Z,99131.37
2018-11-12T09:15:30.396Z,99136.42
2018-11-12T09:17:59.997Z,99133.48
2018-11-12T09:20:29.406Z,99142.38
2018-11-12T09:22:58.609Z,99133.27
2018-11-12T09:25:28.503Z,99134.88
2018-11-12T09:27:57.752Z,99132.91
2018-11-12T09:30:28.147Z,99133.88
2018-11-12T09:32:57.322Z,99137.06
2018-11-12T09:35:27.863Z,99137.78
2018-11-12T09:37:57.884Z,99146.02
2018-11-12T09:40:30.122Z,99155.64
2018-11-12T09:42:59.343Z,99157.36
2018-11-12T09:45:28.494Z,99148.30
2018-11-12T09:47:58.134Z,99150.31
2018-11-12T09:50:27.984Z,99159.19
2018-11-12T09:52:58.276Z,99147.08
2018-11-12T09:55:28.630Z,99138.05
2018-11-12T09:58:06.042Z,99144.41
2018-11-12T10:00:35.996Z,99144.35
2018-11-12T10:03:06.060Z,99147.48
2018-11-12T10:05:35.782Z,99141.39
2018-11-12T10:08:10.030Z,99139.08
2018-11-12T10:10:43.008Z,99142.42
2018-11-12T10:13:13.585Z,99131.87
2018-11-12T10:15:43.519Z,99128.98
2018-11-12T10:20:39.037Z,99133.64
2018-11-12T10:23:08.367Z,99137.44
2018-11-12T10:25:37.552Z,99139.30
2018-11-12T10:28:06.741Z,99144.30
2018-11-12T10:30:35.950Z,99131.89
2018-11-12T10:33:05.427Z,99124.23
2018-11-12T10:35:34.735Z,99118.33
2018-11-12T10:38:04.104Z,99127.53
2018-11-12T10:40:33.251Z,99126.20
2018-11-12T10:43:02.386Z,99125.69
2018-11-12T10:45:31.540Z,99133.75
2018-11-12T10:48:00.728Z,99128.79
2018-11-12T10:50:29.920Z,99136.42
2018-11-12T10:52:59.080Z,99131.48
2018-11-12T10:55:28.352Z,99115.55
2018-11-12T10:57:57.477Z,99117.91
2018-11-12T11:00:33.189Z,99120.11
2018-11-12T11:03:09.299Z,99118.88
2018-11-12T11:05:39.532Z,99119.81
2018-11-12T11:08:09.243Z,99118.07
2018-11-12T11:10:38.374Z,99116.22
2018-11-12T11:13:08.098Z,99116.79
2018-11-12T11:15:37.837Z,99117.48
2018-11-12T11:18:07.391Z,99112.98
2018-11-12T11:20:36.581Z,99115.13
2018-11-12T11:23:05.814Z,99115.59
2018-11-12T11:25:35.336Z,99106.98
2018-11-12T11:28:04.476Z,99102.30
2018-11-12T11:30:33.679Z,99111.22
2018-11-12T11:33:02.860Z,99098.81
2018-11-12T11:35:32.004Z,99099.68
2018-11-12T11:38:01.156Z,99099.48
2018-11-12T11:40:30.298Z,99100.45
2018-11-12T11:42:59.430Z,99099.48
2018-11-12T11:45:28.598Z,99097.69
2018-11-12T11:47:57.771Z,99092.99
2018-11-12T11:50:27.678Z,99090.09
2018-11-12T11:52:56.803Z,99080.14
2018-11-12T11:55:26.149Z,99082.52
2018-11-12T11:57:55.321Z,99068.57
2018-11-12T12:00:25.796Z,99061.98
2018-11-12T12:02:56.097Z,99054.23
2018-11-12T12:05:25.622Z,99065.40
2018-11-12T12:07:55.529Z,99059.56
2018-11-12T12:10:24.691Z,99053.69
2018-11-12T12:12:54.043Z,99051.56
2018-11-12T12:15:23.951Z,99052.33
2018-11-12T12:17:53.153Z,99052.97
2018-11-12T12:20:25.530Z,99052.16
2018-11-12T12:22:55.130Z,99056.25
2018-11-12T12:25:24.310Z,99060.25
2018-11-12T12:27:53.459Z,99074.31
2018-11-12T12:30:23.958Z,99072.06
2018-11-12T12:32:54.087Z,99064.05
2018-11-12T12:35:23.315Z,99063.05
2018-11-12T12:37:52.599Z,99059.00
2018-11-12T12:40:23.114Z,99069.20
2018-11-12T12:42:52.294Z,99066.85
2018-11-12T12:45:23.111Z,99075.00
2018-11-12T12:47:52.754Z,99072.97
2018-11-12T12:50:21.916Z,99067.02
2018-11-12T12:52:51.082Z,99063.37
2018-11-12T12:55:20.261Z,99060.41
2018-11-12T12:57:49.589Z,99058.43
2018-11-12T13:00:22.318Z,99058.43
2018-11-12T13:02:51.480Z,99055.95
2018-11-12T13:05:20.596Z,99052.33
2018-11-12T13:07:49.723Z,99047.85
2018-11-12T13:10:20.134Z,99052.80
2018-11-12T13:12:49.425Z,99071.08
2018-11-12T13:15:19.467Z,99083.45
2018-11-12T13:17:49.271Z,99088.21
2018-11-12T13:20:19.653Z,99079.45
2018-11-12T13:22:49.431Z,99070.06
2018-11-12T13:25:18.619Z,99069.84
2018-11-12T13:27:48.300Z,99072.61
2018-11-12T13:30:20.840Z,99073.44
2018-11-12T13:32:50.146Z,99085.95
2018-11-12T13:35:21.069Z,99068.67
2018-11-12T13:37:50.239Z,99055.64
2018-11-12T13:40:21.015Z,99062.87
2018-11-12T13:42:52.652Z,99067.98
2018-11-12T13:45:22.235Z,99072.73
2018-11-12T13:47:51.390Z,99089.14
2018-11-12T13:50:21.882Z,99089.84
2018-11-12T13:52:51.670Z,99087.54
2018-11-12T13:55:22.005Z,99086.37
2018-11-12T13:57:51.147Z,99091.55
2018-11-12T14:00:21.922Z,99103.36
2018-11-12T14:02:51.645Z,99107.66
2018-11-12T14:05:21.948Z,99112.30
2018-11-12T14:07:51.228Z,99114.27
2018-11-12T14:10:22.830Z,99114.78
2018-11-12T14:12:53.155Z,99116.98
2018-11-12T14:15:22.957Z,99115.55
2018-11-12T14:17:52.769Z,99114.72
2018-11-12T14:20:22.492Z,99110.89
2018-11-12T14:22:51.579Z,99096.88
2018-11-12T14:25:21.777Z,99104.94
2018-11-12T14:27:52.091Z,99108.94
2018-11-12T14:30:22.979Z,99112.77
2018-11-12T14:32:52.216Z,99114.05
2018-11-12T14:35:21.487Z,99115.44
2018-11-12T14:37:50.697Z,99119.89
2018-11-12T14:40:20.175Z,99116.66
2018-11-12T14:42:49.339Z,99120.19
2018-11-12T14:45:19.958Z,99115.55
2018-11-12T14:47:49.208Z,99124.00
2018-11-12T14:50:18.365Z,99125.75
2018-11-12T14:52:47.994Z,99119.89
2018-11-12T14:55:17.904Z,99121.57
2018-11-12T14:57:47.111Z,99125.84
2018-11-12T15:00:18.542Z,99126.77
2018-11-12T15:02:47.741Z,99125.63
2018-11-12T15:05:18.193Z,99119.78
2018-11-12T15:07:47.313Z,99106.39
2018-11-12T15:10:16.480Z,99110.91
2018-11-12T15:12:46.700Z,99126.08
2018-11-12T15:15:15.895Z,99134.78
2018-11-12T15:17:45.284Z,99132.11
2018-11-12T15:20:15.773Z,99127.19
2018-11-12T15:22:46.216Z,99133.48
2018-11-12T15:25:18.130Z,99138.33
2018-11-12T15:27:47.351Z,99131.84
2018-11-12T15:30:24.542Z,99133.36
2018-11-12T15:32:55.126Z,99139.23
2018-11-12T15:35:24.486Z,99142.78
2018-11-12T15:37:53.774Z,99138.47
2018-11-12T15:40:23.023Z,99142.63
2018-11-12T15:42:52.233Z,99136.30
2018-11-12T15:45:24.248Z,99139.27
2018-11-12T15:47:53.492Z,99137.36
2018-11-12T15:50:25.532Z,99140.36
2018-11-12T15:52:54.787Z,99139.11
2018-11-12T15:55:23.968Z,99147.90
2018-11-12T15:57:53.495Z,99150.86
2018-11-12T16:00:22.646Z,99142.88
2018-11-12T16:02:51.830Z,99140.42
2018-11-12T16:05:21.178Z,99145.84
2018-11-12T16:07:50.357Z,99148.95
2018-11-12T16:10:20.766Z,99149.02
2018-11-12T16:12:49.958Z,99153.83
2018-11-12T16:15:20.284Z,99162.27
2018-11-12T16:17:49.507Z,99161.61
2018-11-12T16:20:21.459Z,99168.42
2018-11-12T16:22:51.190Z,99168.50
2018-11-12T16:25:20.765Z,99160.69
2018-11-12T16:27:49.920Z,99165.27
2018-11-12T16:30:19.057Z,99156.25
2018-11-12T16:32:48.315Z,99161.84
2018-11-12T16:35:19.487Z,99161.06
2018-11-12T16:37:49.843Z,99165.84
2018-11-12T16:40:19.251Z,99176.44
2018-11-12T16:42:49.131Z,99181.19
2018-11-12T16:45:18.402Z,99190.27
2018-11-12T16:47:47.735Z,99182.27
2018-11-12T16:50:17.474Z,99182.44
2018-11-12T16:52:46.810Z,99182.44
2018-11-12T16:55:17.710Z,99176.16
2018-11-12T16:57:47.339Z,99173.19
2018-11-12T17:00:18.126Z,99184.94
2018-11-12T17:02:47.678Z,99190.88
2018-11-12T17:05:18.636Z,99190.94
2018-11-12T17:07:47.804Z,99197.35
2018-11-12T17:10:18.201Z,99196.65
2018-11-12T17:12:48.326Z,99181.81
2018-11-12T17:15:18.106Z,99174.92
2018-11-12T17:17:47.487Z,99179.41
2018-11-12T17:20:18.077Z,99181.00
2018-11-12T17:22:47.232Z,99183.02
2018-11-12T17:25:16.969Z,99182.09
2018-11-12T17:27:46.633Z,99181.88
2018-11-12T17:30:21.037Z,99172.50
2018-11-12T17:32:50.794Z,99180.87
2018-11-12T17:35:21.301Z,99182.20
2018-11-12T17:37:50.486Z,99175.30
2018-11-12T17:40:22.131Z,99173.77
2018-11-12T17:42:52.596Z,99167.25
2018-11-12T17:45:23.139Z,99177.13
2018-11-12T17:47:53.603Z,99183.54
2018-11-12T17:50:22.848Z,99177.33
2018-11-12T17:52:52.045Z,99172.58
2018-11-12T17:55:21.257Z,99166.88
2018-11-12T17:57:50.565Z,99177.84
2018-11-12T18:00:23.110Z,99182.33
2018-11-12T18:02:52.690Z,99175.73
2018-11-12T18:05:21.827Z,99176.13
2018-11-12T18:07:51.136Z,99176.49
2018-11-12T18:10:20.308Z,99190.50
2018-11-12T18:12:49.566Z,99198.05
2018-11-12T18:15:20.275Z,99182.22
2018-11-12T18:17:49.657Z,99185.25
2018-11-12T18:20:20.789Z,99189.10
2018-11-12T18:22:50.672Z,99192.55
2018-11-12T18:25:19.869Z,99199.38
2018-11-12T18:27:49.033Z,99203.64
2018-11-12T18:30:22.323Z,99205.28
2018-11-12T18:32:52.823Z,99204.83
2018-11-12T18:35:21.973Z,99198.18
2018-11-12T18:37:51.239Z,99206.03
2018-11-12T18:40:22.015Z,99196.72
2018-11-12T18:42:51.191Z,99208.69
2018-11-12T18:45:22.891Z,99217.56
2018-11-12T18:47:52.091Z,99217.36
2018-11-12T18:50:24.744Z,99228.35
2018-11-12T18:52:53.937Z,99235.89
2018-11-12T18:55:23.106Z,99236.95
2018-11-12T18:57:52.785Z,99233.09
2018-11-12T19:00:23.185Z,99240.70
2018-11-12T19:02:53.057Z,99242.20
2018-11-12T19:05:25.649Z,99243.02
2018-11-12T19:07:56.198Z,99244.18
2018-11-12T19:10:27.266Z,99240.33
2018-11-12T19:12:56.422Z,99239.98
2018-11-12T19:15:31.382Z,99238.86
2018-11-12T19:18:03.789Z,99243.22
2018-11-12T19:20:33.007Z,99248.61
2018-11-12T19:23:02.314Z,99259.86
2018-11-12T19:25:32.615Z,99264.06
2018-11-12T19:28:01.958Z,99269.91
2018-11-12T19:30:31.601Z,99278.33
2018-11-12T19:33:00.882Z,99280.09
2018-11-12T19:35:31.640Z,99284.78
2018-11-12T19:38:01.522Z,99288.16
2018-11-12T19:40:31.852Z,99287.95
2018-11-12T19:43:01.022Z,99285.28
2018-11-12T19:45:30.180Z,99286.11
2018-11-12T19:47:59.334Z,99289.28
2018-11-12T19:50:29.431Z,99290.61
2018-11-12T19:52:59.565Z,99290.74
2018-11-12T19:55:28.734Z,99179.66
2018-11-12T19:57:58.126Z,99291.48
2018-11-12T20:00:28.308Z,99294.73
2018-11-12T20:02:59.334Z,99293.27
2018-11-12T20:05:28.582Z,99295.77
2018-11-12T20:07:57.818Z,99305.98
2018-11-12T20:10:27.530Z,99313.83
2018-11-12T20:12:56.729Z,99310.66
2018-11-12T20:15:26.885Z,99312.58
2018-11-12T20:17:56.490Z,99326.78
2018-11-12T20:20:27.199Z,99329.00
2018-11-12T20:22:57.858Z,99336.48
2018-11-12T20:25:27.107Z,99333.51
2018-11-12T20:27:57.175Z,99337.81
2018-11-12T20:30:30.962Z,99338.32
2018-11-12T20:33:00.183Z,99335.66
2018-11-12T20:35:29.536Z,99337.94
2018-11-12T20:37:58.765Z,99342.17
2018-11-12T20:40:27.976Z,99341.62
2018-11-12T20:42:57.193Z,99342.23
2018-11-12T20:45:27.291Z,99338.91
2018-11-12T20:47:57.356Z,99350.38
2018-11-12T20:50:26.594Z,99351.40
2018-11-12T20:52:55.890Z,99349.55
2018-11-12T20:55:25.133Z,99340.47
2018-11-12T20:57:54.307Z,99353.98
2018-11-12T21:00:25.099Z,99346.51
2018-11-12T21:02:54.852Z,99354.22
2018-11-12T21:05:25.697Z,99358.21
2018-11-12T21:07:55.122Z,99358.93
2018-11-12T21:10:24.454Z,99355.98
2018-11-12T21:12:53.816Z,99354.27
2018-11-12T21:15:24.093Z,99358.27
2018-11-12T21:17:53.327Z,99363.52
2018-11-12T21:20:23.528Z,99355.84
2018-11-12T21:22:52.827Z,99343.55
2018-11-12T21:25:23.144Z,99348.06
2018-11-12T21:27:52.393Z,99341.91
2018-11-12T21:30:22.879Z,99351.23
2018-11-12T21:32:52.045Z,99348.88
2018-11-12T21:35:21.379Z,99349.19
2018-11-12T21:37:51.461Z,99343.55
2018-11-12T21:40:22.114Z,99339.43
2018-11-12T21:42:51.352Z,99345.19
2018-11-12T21:45:21.857Z,99337.80
2018-11-12T21:47:51.000Z,99334.82
2018-11-12T21:50:21.076Z,99334.82
2018-11-12T21:52:50.235Z,99334.55
2018-11-12T21:55:19.478Z,99347.42
2018-11-12T21:57:48.678Z,99353.33
2018-11-12T22:00:26.312Z,99354.37
2018-11-12T22:03:00.699Z,99358.05
2018-11-12T22:05:31.058Z,99355.11
2018-11-12T22:08:00.516Z,99363.54
2018-11-12T22:10:30.269Z,99359.75
2018-11-12T22:12:59.451Z,99361.90
2018-11-12T22:15:28.615Z,99359.03
2018-11-12T22:17:57.826Z,99356.88
2018-11-12T22:20:28.802Z,99363.54
2018-11-12T22:22:58.044Z,99364.87
2018-11-12T22:25:27.273Z,99366.27
2018-11-12T22:27:56.630Z,99368.63
2018-11-12T22:30:27.101Z,99363.10
2018-11-12T22:32:56.879Z,99364.44
2018-11-12T22:35:26.052Z,99363.38
2018-11-12T22:37:55.223Z,99366.34
2018-11-12T22:40:24.396Z,99353.34
2018-11-12T22:42:54.011Z,99345.56
2018-11-12T22:45:24.215Z,99338.39
2018-11-12T22:47:53.628Z,99344.23
2018-11-12T22:50:22.879Z,99345.05
2018-11-12T22:52:52.042Z,99347.71
2018-11-12T22:55:21.394Z,99349.79
2018-11-12T22:57:50.547Z,99353.48
2018-11-12T23:00:26.067Z,99353.91
2018-11-12T23:02:55.682Z,99351.33
2018-11-12T23:05:25.018Z,99348.59
2018-11-12T23:07:54.866Z,99348.59
2018-11-12T23:10:24.146Z,99345.62
2018-11-12T23:12:53.382Z,99347.26
2018-11-12T23:15:22.527Z,99340.16
2018-11-12T23:17:51.684Z,99338.52
2018-11-12T23:20:22.162Z,99340.60
2018-11-12T23:22:51.944Z,99344.59
2018-11-12T23:25:21.161Z,99346.23
2018-11-12T23:27:50.934Z,99348.28
2018-11-12T23:30:21.468Z,99345.62
2018-11-12T23:32:50.644Z,99344.45
2018-11-12T23:35:21.091Z,99351.61
2018-11-12T23:37:50.574Z,99350.36
2018-11-12T23:40:19.824Z,99336.66
2018-11-12T23:42:49.061Z,99338.54
2018-11-12T23:45:18.316Z,99348.44
2018-11-12T23:47:47.455Z,99335.56
2018-11-12T23:50:19.976Z,99340.89
2018-11-12T23:52:49.866Z,99334.23
2018-11-12T23:55:19.499Z,99339.56
2018-11-12T23:57:49.409Z,99331.88
